sensor_id;sensor_type;location;lat;lon;timestamp;P1;durP1;ratioP1;P2;durP2;ratioP2
49502;SDS011;35409;48.776;9.204;2023-08-07T00:00:11;5.32;;;1.52;;
49502;SDS011;35409;48.776;9.204;2023-08-07T00:02:37;4.47;;;1.45;;
49502;SDS011;35409;48.776;9.204;2023-08-07T00:05:04;7.43;;;1.58;;
49502;SDS011;35409;48.776;9.204;2023-08-07T00:07:30;4.20;;;1.17;;
49502;SDS011;35409;48.776;9.204;2023-08-07T00:09:56;3.97;;;1.25;;
49502;SDS011;35409;48.776;9.204;2023-08-07T00:12:22;5.15;;;1.33;;
49502;SDS011;35409;48.776;9.204;2023-08-07T00:14:49;2.90;;;1.35;;
49502;SDS011;35409;48.776;9.204;2023-08-07T00:17:16;6.72;;;1.08;;
49502;SDS011;35409;48.776;9.204;2023-08-07T00:19:42;3.22;;;1.20;;
49502;SDS011;35409;48.776;9.204;2023-08-07T00:22:08;3.20;;;1.45;;
49502;SDS011;35409;48.776;9.204;2023-08-07T00:24:34;5.65;;;1.40;;
49502;SDS011;35409;48.776;9.204;2023-08-07T00:27:00;4.38;;;1.50;;
49502;SDS011;35409;48.776;9.204;2023-08-07T00:29:26;5.32;;;1.70;;
49502;SDS011;35409;48.776;9.204;2023-08-07T00:31:52;5.00;;;1.70;;
49502;SDS011;35409;48.776;9.204;2023-08-07T00:34:18;2.63;;;1.38;;
49502;SDS011;35409;48.776;9.204;2023-08-07T00:36:44;2.85;;;1.60;;
49502;SDS011;35409;48.776;9.204;2023-08-07T00:39:10;3.40;;;1.42;;
49502;SDS011;35409;48.776;9.204;2023-08-07T00:41:36;2.45;;;1.40;;
49502;SDS011;35409;48.776;9.204;2023-08-07T00:44:02;3.03;;;1.30;;
49502;SDS011;35409;48.776;9.204;2023-08-07T00:46:28;4.18;;;1.15;;
49502;SDS011;35409;48.776;9.204;2023-08-07T00:48:54;3.35;;;1.30;;
49502;SDS011;35409;48.776;9.204;2023-08-07T00:51:20;4.65;;;1.63;;
49502;SDS011;35409;48.776;9.204;2023-08-07T00:53:47;3.58;;;1.30;;
49502;SDS011;35409;48.776;9.204;2023-08-07T00:56:13;4.45;;;1.38;;
49502;SDS011;35409;48.776;9.204;2023-08-07T00:58:40;2.55;;;1.17;;
49502;SDS011;35409;48.776;9.204;2023-08-07T01:01:06;4.10;;;1.65;;
49502;SDS011;35409;48.776;9.204;2023-08-07T01:03:32;2.00;;;0.98;;
49502;SDS011;35409;48.776;9.204;2023-08-07T01:05:59;6.95;;;1.60;;
49502;SDS011;35409;48.776;9.204;2023-08-07T01:08:25;4.50;;;1.80;;
49502;SDS011;35409;48.776;9.204;2023-08-07T01:13:23;3.28;;;1.33;;
49502;SDS011;35409;48.776;9.204;2023-08-07T01:15:52;2.15;;;1.35;;
49502;SDS011;35409;48.776;9.204;2023-08-07T01:18:18;2.45;;;1.20;;
49502;SDS011;35409;48.776;9.204;2023-08-07T01:20:44;2.60;;;1.30;;
49502;SDS011;35409;48.776;9.204;2023-08-07T01:23:10;2.78;;;1.50;;
49502;SDS011;35409;48.776;9.204;2023-08-07T01:25:36;8.02;;;1.75;;
49502;SDS011;35409;48.776;9.204;2023-08-07T01:28:06;4.00;;;1.58;;
49502;SDS011;35409;48.776;9.204;2023-08-07T01:30:36;2.47;;;1.40;;
49502;SDS011;35409;48.776;9.204;2023-08-07T01:35:33;3.88;;;1.60;;
49502;SDS011;35409;48.776;9.204;2023-08-07T01:38:00;5.30;;;1.40;;
49502;SDS011;35409;48.776;9.204;2023-08-07T01:40:28;3.78;;;1.48;;
49502;SDS011;35409;48.776;9.204;2023-08-07T01:42:54;3.28;;;1.13;;
49502;SDS011;35409;48.776;9.204;2023-08-07T01:45:26;2.83;;;1.20;;
49502;SDS011;35409;48.776;9.204;2023-08-07T01:47:53;5.30;;;1.70;;
49502;SDS011;35409;48.776;9.204;2023-08-07T01:50:19;2.25;;;1.33;;
49502;SDS011;35409;48.776;9.204;2023-08-07T01:52:45;3.92;;;1.42;;
49502;SDS011;35409;48.776;9.204;2023-08-07T01:55:12;4.45;;;1.38;;
49502;SDS011;35409;48.776;9.204;2023-08-07T01:57:38;5.47;;;1.48;;
49502;SDS011;35409;48.776;9.204;2023-08-07T02:00:05;4.05;;;1.10;;
49502;SDS011;35409;48.776;9.204;2023-08-07T02:02:31;3.00;;;1.55;;
49502;SDS011;35409;48.776;9.204;2023-08-07T02:04:57;6.50;;;1.40;;
49502;SDS011;35409;48.776;9.204;2023-08-07T02:07:23;2.85;;;1.40;;
49502;SDS011;35409;48.776;9.204;2023-08-07T02:09:49;3.72;;;1.50;;
49502;SDS011;35409;48.776;9.204;2023-08-07T02:12:15;4.35;;;1.55;;
49502;SDS011;35409;48.776;9.204;2023-08-07T02:14:41;3.08;;;1.48;;
49502;SDS011;35409;48.776;9.204;2023-08-07T02:17:07;4.43;;;1.30;;
49502;SDS011;35409;48.776;9.204;2023-08-07T02:19:33;3.33;;;1.50;;
49502;SDS011;35409;48.776;9.204;2023-08-07T02:21:59;2.67;;;1.20;;
49502;SDS011;35409;48.776;9.204;2023-08-07T02:24:25;3.17;;;1.38;;
49502;SDS011;35409;48.776;9.204;2023-08-07T02:26:51;2.25;;;1.10;;
49502;SDS011;35409;48.776;9.204;2023-08-07T02:29:17;2.45;;;1.48;;
49502;SDS011;35409;48.776;9.204;2023-08-07T02:31:43;3.28;;;1.38;;
49502;SDS011;35409;48.776;9.204;2023-08-07T02:34:09;3.28;;;1.40;;
49502;SDS011;35409;48.776;9.204;2023-08-07T02:36:35;5.40;;;1.33;;
49502;SDS011;35409;48.776;9.204;2023-08-07T02:39:01;4.18;;;1.40;;
49502;SDS011;35409;48.776;9.204;2023-08-07T02:41:27;4.05;;;1.50;;
49502;SDS011;35409;48.776;9.204;2023-08-07T02:43:53;4.90;;;1.52;;
49502;SDS011;35409;48.776;9.204;2023-08-07T02:46:19;2.05;;;1.30;;
49502;SDS011;35409;48.776;9.204;2023-08-07T02:48:45;3.63;;;1.33;;
49502;SDS011;35409;48.776;9.204;2023-08-07T02:51:11;4.03;;;1.58;;
49502;SDS011;35409;48.776;9.204;2023-08-07T02:53:37;3.40;;;1.20;;
49502;SDS011;35409;48.776;9.204;2023-08-07T02:56:03;4.03;;;1.48;;
49502;SDS011;35409;48.776;9.204;2023-08-07T02:58:29;2.47;;;1.45;;
49502;SDS011;35409;48.776;9.204;2023-08-07T03:00:55;5.05;;;1.65;;
49502;SDS011;35409;48.776;9.204;2023-08-07T03:03:21;3.95;;;1.67;;
49502;SDS011;35409;48.776;9.204;2023-08-07T03:05:50;4.93;;;1.65;;
49502;SDS011;35409;48.776;9.204;2023-08-07T03:08:16;3.67;;;1.35;;
49502;SDS011;35409;48.776;9.204;2023-08-07T03:10:49;4.65;;;1.77;;
49502;SDS011;35409;48.776;9.204;2023-08-07T03:13:15;4.45;;;1.60;;
49502;SDS011;35409;48.776;9.204;2023-08-07T03:15:41;5.28;;;1.70;;
49502;SDS011;35409;48.776;9.204;2023-08-07T03:18:07;3.92;;;1.50;;
49502;SDS011;35409;48.776;9.204;2023-08-07T03:20:35;3.58;;;1.40;;
49502;SDS011;35409;48.776;9.204;2023-08-07T03:23:01;5.22;;;1.60;;
49502;SDS011;35409;48.776;9.204;2023-08-07T03:25:27;3.40;;;1.80;;
49502;SDS011;35409;48.776;9.204;2023-08-07T03:27:53;5.57;;;1.63;;
49502;SDS011;35409;48.776;9.204;2023-08-07T03:30:19;7.50;;;1.63;;
49502;SDS011;35409;48.776;9.204;2023-08-07T03:32:45;6.95;;;1.58;;
49502;SDS011;35409;48.776;9.204;2023-08-07T03:35:11;5.75;;;1.63;;
49502;SDS011;35409;48.776;9.204;2023-08-07T03:37:37;2.08;;;1.10;;
49502;SDS011;35409;48.776;9.204;2023-08-07T03:40:04;7.05;;;1.58;;
49502;SDS011;35409;48.776;9.204;2023-08-07T03:42:30;2.53;;;1.45;;
49502;SDS011;35409;48.776;9.204;2023-08-07T03:44:56;3.90;;;1.40;;
49502;SDS011;35409;48.776;9.204;2023-08-07T03:47:23;3.97;;;1.50;;
49502;SDS011;35409;48.776;9.204;2023-08-07T03:49:49;6.70;;;1.52;;
49502;SDS011;35409;48.776;9.204;2023-08-07T03:52:15;6.30;;;2.05;;
49502;SDS011;35409;48.776;9.204;2023-08-07T03:54:42;6.40;;;1.50;;
49502;SDS011;35409;48.776;9.204;2023-08-07T03:57:08;4.68;;;1.50;;
49502;SDS011;35409;48.776;9.204;2023-08-07T03:59:35;10.52;;;1.73;;
49502;SDS011;35409;48.776;9.204;2023-08-07T04:02:02;5.40;;;1.50;;
49502;SDS011;35409;48.776;9.204;2023-08-07T04:04:28;4.88;;;1.50;;
49502;SDS011;35409;48.776;9.204;2023-08-07T04:06:54;4.65;;;1.70;;
49502;SDS011;35409;48.776;9.204;2023-08-07T04:09:20;5.53;;;1.83;;
49502;SDS011;35409;48.776;9.204;2023-08-07T04:11:45;5.15;;;1.30;;
49502;SDS011;35409;48.776;9.204;2023-08-07T04:14:12;6.40;;;1.30;;
49502;SDS011;35409;48.776;9.204;2023-08-07T04:16:38;5.72;;;1.80;;
49502;SDS011;35409;48.776;9.204;2023-08-07T04:19:04;6.82;;;1.83;;
49502;SDS011;35409;48.776;9.204;2023-08-07T04:21:32;6.88;;;1.80;;
49502;SDS011;35409;48.776;9.204;2023-08-07T04:23:58;7.07;;;1.67;;
49502;SDS011;35409;48.776;9.204;2023-08-07T04:26:33;2.75;;;1.30;;
49502;SDS011;35409;48.776;9.204;2023-08-07T04:28:59;7.07;;;1.80;;
49502;SDS011;35409;48.776;9.204;2023-08-07T04:31:25;6.22;;;1.90;;
49502;SDS011;35409;48.776;9.204;2023-08-07T04:33:51;5.50;;;2.05;;
49502;SDS011;35409;48.776;9.204;2023-08-07T04:36:17;2.88;;;1.52;;
49502;SDS011;35409;48.776;9.204;2023-08-07T04:38:43;5.38;;;1.65;;
49502;SDS011;35409;48.776;9.204;2023-08-07T04:41:09;4.57;;;1.80;;
49502;SDS011;35409;48.776;9.204;2023-08-07T04:43:36;4.22;;;1.55;;
49502;SDS011;35409;48.776;9.204;2023-08-07T04:46:02;4.20;;;1.50;;
49502;SDS011;35409;48.776;9.204;2023-08-07T04:48:28;6.95;;;1.70;;
49502;SDS011;35409;48.776;9.204;2023-08-07T04:50:54;3.17;;;1.63;;
49502;SDS011;35409;48.776;9.204;2023-08-07T04:53:20;4.97;;;1.52;;
49502;SDS011;35409;48.776;9.204;2023-08-07T04:55:46;2.92;;;1.77;;
49502;SDS011;35409;48.776;9.204;2023-08-07T04:58:12;3.88;;;1.30;;
49502;SDS011;35409;48.776;9.204;2023-08-07T05:00:38;3.80;;;1.27;;
49502;SDS011;35409;48.776;9.204;2023-08-07T05:03:04;5.65;;;1.63;;
49502;SDS011;35409;48.776;9.204;2023-08-07T05:05:30;2.85;;;1.45;;
49502;SDS011;35409;48.776;9.204;2023-08-07T05:07:57;5.70;;;1.40;;
49502;SDS011;35409;48.776;9.204;2023-08-07T05:10:24;7.57;;;1.67;;
49502;SDS011;35409;48.776;9.204;2023-08-07T05:12:50;3.72;;;1.40;;
49502;SDS011;35409;48.776;9.204;2023-08-07T05:15:20;3.65;;;1.50;;
49502;SDS011;35409;48.776;9.204;2023-08-07T05:17:46;3.53;;;1.35;;
49502;SDS011;35409;48.776;9.204;2023-08-07T05:20:12;6.07;;;1.52;;
49502;SDS011;35409;48.776;9.204;2023-08-07T05:22:38;2.15;;;1.33;;
49502;SDS011;35409;48.776;9.204;2023-08-07T05:25:04;5.60;;;1.42;;
49502;SDS011;35409;48.776;9.204;2023-08-07T05:27:30;6.43;;;1.60;;
49502;SDS011;35409;48.776;9.204;2023-08-07T05:29:56;4.43;;;1.70;;
49502;SDS011;35409;48.776;9.204;2023-08-07T05:32:22;4.60;;;1.67;;
49502;SDS011;35409;48.776;9.204;2023-08-07T05:34:48;4.22;;;1.80;;
49502;SDS011;35409;48.776;9.204;2023-08-07T05:37:15;5.20;;;1.65;;
49502;SDS011;35409;48.776;9.204;2023-08-07T05:39:41;3.63;;;1.48;;
49502;SDS011;35409;48.776;9.204;2023-08-07T05:42:07;4.55;;;1.70;;
49502;SDS011;35409;48.776;9.204;2023-08-07T05:44:35;7.50;;;1.60;;
49502;SDS011;35409;48.776;9.204;2023-08-07T05:47:01;5.35;;;1.42;;
49502;SDS011;35409;48.776;9.204;2023-08-07T05:49:27;5.97;;;1.60;;
49502;SDS011;35409;48.776;9.204;2023-08-07T05:51:53;5.60;;;1.55;;
49502;SDS011;35409;48.776;9.204;2023-08-07T05:54:19;6.63;;;1.52;;
49502;SDS011;35409;48.776;9.204;2023-08-07T05:56:45;5.03;;;1.83;;
49502;SDS011;35409;48.776;9.204;2023-08-07T05:59:11;3.28;;;1.55;;
49502;SDS011;35409;48.776;9.204;2023-08-07T06:01:37;3.20;;;1.33;;
49502;SDS011;35409;48.776;9.204;2023-08-07T06:04:03;3.80;;;1.60;;
49502;SDS011;35409;48.776;9.204;2023-08-07T06:06:29;2.92;;;1.48;;
49502;SDS011;35409;48.776;9.204;2023-08-07T06:08:59;3.97;;;1.30;;
49502;SDS011;35409;48.776;9.204;2023-08-07T06:11:26;6.90;;;1.80;;
49502;SDS011;35409;48.776;9.204;2023-08-07T06:13:52;6.50;;;1.50;;
49502;SDS011;35409;48.776;9.204;2023-08-07T06:16:18;5.65;;;1.60;;
49502;SDS011;35409;48.776;9.204;2023-08-07T06:18:44;6.45;;;1.42;;
49502;SDS011;35409;48.776;9.204;2023-08-07T06:21:10;4.43;;;1.70;;
49502;SDS011;35409;48.776;9.204;2023-08-07T06:23:37;7.43;;;1.65;;
49502;SDS011;35409;48.776;9.204;2023-08-07T06:26:03;7.60;;;1.60;;
49502;SDS011;35409;48.776;9.204;2023-08-07T06:28:32;6.50;;;1.85;;
49502;SDS011;35409;48.776;9.204;2023-08-07T06:31:02;7.07;;;1.83;;
49502;SDS011;35409;48.776;9.204;2023-08-07T06:33:28;6.57;;;1.53;;
49502;SDS011;35409;48.776;9.204;2023-08-07T06:35:54;7.22;;;1.92;;
49502;SDS011;35409;48.776;9.204;2023-08-07T06:38:20;5.18;;;1.60;;
49502;SDS011;35409;48.776;9.204;2023-08-07T06:40:46;2.65;;;1.25;;
49502;SDS011;35409;48.776;9.204;2023-08-07T06:43:12;5.25;;;1.83;;
49502;SDS011;35409;48.776;9.204;2023-08-07T06:45:38;3.47;;;1.45;;
49502;SDS011;35409;48.776;9.204;2023-08-07T06:48:04;4.78;;;1.77;;
49502;SDS011;35409;48.776;9.204;2023-08-07T06:50:30;3.83;;;1.33;;
49502;SDS011;35409;48.776;9.204;2023-08-07T06:52:56;6.22;;;1.70;;
49502;SDS011;35409;48.776;9.204;2023-08-07T06:55:22;3.70;;;1.48;;
49502;SDS011;35409;48.776;9.204;2023-08-07T06:57:48;4.20;;;2.08;;
49502;SDS011;35409;48.776;9.204;2023-08-07T07:00:15;4.13;;;2.00;;
49502;SDS011;35409;48.776;9.204;2023-08-07T07:02:41;3.72;;;1.70;;
49502;SDS011;35409;48.776;9.204;2023-08-07T07:05:07;3.85;;;1.75;;
49502;SDS011;35409;48.776;9.204;2023-08-07T07:07:34;2.42;;;1.60;;
49502;SDS011;35409;48.776;9.204;2023-08-07T07:10:00;4.15;;;1.85;;
49502;SDS011;35409;48.776;9.204;2023-08-07T07:12:27;3.83;;;1.38;;
49502;SDS011;35409;48.776;9.204;2023-08-07T07:14:53;8.57;;;2.55;;
49502;SDS011;35409;48.776;9.204;2023-08-07T07:17:19;6.30;;;1.50;;
49502;SDS011;35409;48.776;9.204;2023-08-07T07:19:45;7.75;;;1.65;;
49502;SDS011;35409;48.776;9.204;2023-08-07T07:22:11;3.72;;;1.02;;
49502;SDS011;35409;48.776;9.204;2023-08-07T07:24:37;3.53;;;1.60;;
49502;SDS011;35409;48.776;9.204;2023-08-07T07:27:03;2.25;;;1.65;;
49502;SDS011;35409;48.776;9.204;2023-08-07T07:29:29;3.40;;;1.48;;
49502;SDS011;35409;48.776;9.204;2023-08-07T07:31:55;3.20;;;1.75;;
49502;SDS011;35409;48.776;9.204;2023-08-07T07:34:21;3.13;;;1.40;;
49502;SDS011;35409;48.776;9.204;2023-08-07T07:36:47;5.57;;;1.30;;
49502;SDS011;35409;48.776;9.204;2023-08-07T07:39:13;4.13;;;1.77;;
49502;SDS011;35409;48.776;9.204;2023-08-07T07:41:39;6.68;;;1.83;;
49502;SDS011;35409;48.776;9.204;2023-08-07T07:44:05;2.80;;;1.40;;
49502;SDS011;35409;48.776;9.204;2023-08-07T07:46:33;2.35;;;1.10;;
49502;SDS011;35409;48.776;9.204;2023-08-07T07:48:59;4.60;;;1.20;;
49502;SDS011;35409;48.776;9.204;2023-08-07T07:51:26;5.05;;;1.52;;
49502;SDS011;35409;48.776;9.204;2023-08-07T07:53:53;2.75;;;1.30;;
49502;SDS011;35409;48.776;9.204;2023-08-07T07:56:19;5.60;;;1.50;;
49502;SDS011;35409;48.776;9.204;2023-08-07T07:58:44;3.80;;;1.30;;
49502;SDS011;35409;48.776;9.204;2023-08-07T08:01:11;3.30;;;1.17;;
49502;SDS011;35409;48.776;9.204;2023-08-07T08:03:36;7.53;;;1.42;;
49502;SDS011;35409;48.776;9.204;2023-08-07T08:06:02;3.03;;;1.48;;
49502;SDS011;35409;48.776;9.204;2023-08-07T08:08:29;2.10;;;0.90;;
49502;SDS011;35409;48.776;9.204;2023-08-07T08:10:55;2.65;;;1.30;;
49502;SDS011;35409;48.776;9.204;2023-08-07T08:13:21;4.05;;;1.20;;
49502;SDS011;35409;48.776;9.204;2023-08-07T08:15:47;6.75;;;1.30;;
49502;SDS011;35409;48.776;9.204;2023-08-07T08:18:13;2.55;;;1.20;;
49502;SDS011;35409;48.776;9.204;2023-08-07T08:20:39;2.75;;;1.02;;
49502;SDS011;35409;48.776;9.204;2023-08-07T08:23:05;2.58;;;1.17;;
49502;SDS011;35409;48.776;9.204;2023-08-07T08:25:31;5.32;;;1.55;;
49502;SDS011;35409;48.776;9.204;2023-08-07T08:27:58;1.77;;;1.10;;
49502;SDS011;35409;48.776;9.204;2023-08-07T08:30:24;2.88;;;1.20;;
49502;SDS011;35409;48.776;9.204;2023-08-07T08:32:52;3.55;;;1.08;;
49502;SDS011;35409;48.776;9.204;2023-08-07T08:35:18;5.25;;;1.27;;
49502;SDS011;35409;48.776;9.204;2023-08-07T08:37:44;3.13;;;1.33;;
49502;SDS011;35409;48.776;9.204;2023-08-07T08:40:10;5.97;;;1.35;;
49502;SDS011;35409;48.776;9.204;2023-08-07T08:42:44;3.70;;;0.95;;
49502;SDS011;35409;48.776;9.204;2023-08-07T08:45:11;4.85;;;1.42;;
49502;SDS011;35409;48.776;9.204;2023-08-07T08:47:38;2.85;;;1.15;;
49502;SDS011;35409;48.776;9.204;2023-08-07T08:50:06;1.83;;;1.10;;
49502;SDS011;35409;48.776;9.204;2023-08-07T08:52:33;1.85;;;1.08;;
49502;SDS011;35409;48.776;9.204;2023-08-07T08:54:59;1.13;;;0.98;;
49502;SDS011;35409;48.776;9.204;2023-08-07T08:57:25;3.08;;;1.08;;
49502;SDS011;35409;48.776;9.204;2023-08-07T08:59:51;1.83;;;1.00;;
49502;SDS011;35409;48.776;9.204;2023-08-07T09:02:17;1.77;;;0.75;;
49502;SDS011;35409;48.776;9.204;2023-08-07T09:04:44;2.00;;;0.93;;
49502;SDS011;35409;48.776;9.204;2023-08-07T09:07:10;1.98;;;0.90;;
49502;SDS011;35409;48.776;9.204;2023-08-07T09:09:38;1.65;;;0.90;;
49502;SDS011;35409;48.776;9.204;2023-08-07T09:12:06;2.85;;;0.90;;
49502;SDS011;35409;48.776;9.204;2023-08-07T09:14:33;4.45;;;1.30;;
49502;SDS011;35409;48.776;9.204;2023-08-07T09:17:01;1.63;;;0.93;;
49502;SDS011;35409;48.776;9.204;2023-08-07T09:19:27;4.45;;;1.80;;
49502;SDS011;35409;48.776;9.204;2023-08-07T09:21:53;1.88;;;1.05;;
49502;SDS011;35409;48.776;9.204;2023-08-07T09:24:19;3.33;;;1.05;;
49502;SDS011;35409;48.776;9.204;2023-08-07T09:26:47;1.05;;;0.88;;
49502;SDS011;35409;48.776;9.204;2023-08-07T09:29:13;3.40;;;1.15;;
49502;SDS011;35409;48.776;9.204;2023-08-07T09:31:42;2.33;;;0.98;;
49502;SDS011;35409;48.776;9.204;2023-08-07T09:34:10;2.72;;;1.00;;
49502;SDS011;35409;48.776;9.204;2023-08-07T09:36:38;2.42;;;1.25;;
49502;SDS011;35409;48.776;9.204;2023-08-07T09:39:04;2.90;;;1.17;;
49502;SDS011;35409;48.776;9.204;2023-08-07T09:41:30;4.32;;;1.25;;
49502;SDS011;35409;48.776;9.204;2023-08-07T09:43:57;3.65;;;1.35;;
49502;SDS011;35409;48.776;9.204;2023-08-07T09:46:25;3.95;;;0.98;;
49502;SDS011;35409;48.776;9.204;2023-08-07T09:48:51;1.52;;;1.00;;
49502;SDS011;35409;48.776;9.204;2023-08-07T09:51:17;2.55;;;1.08;;
49502;SDS011;35409;48.776;9.204;2023-08-07T09:53:43;3.92;;;1.60;;
49502;SDS011;35409;48.776;9.204;2023-08-07T09:56:09;2.33;;;1.08;;
49502;SDS011;35409;48.776;9.204;2023-08-07T09:58:35;3.15;;;1.30;;
49502;SDS011;35409;48.776;9.204;2023-08-07T10:01:04;1.80;;;1.13;;
49502;SDS011;35409;48.776;9.204;2023-08-07T10:03:32;2.15;;;0.95;;
49502;SDS011;35409;48.776;9.204;2023-08-07T10:05:58;2.67;;;1.52;;
49502;SDS011;35409;48.776;9.204;2023-08-07T10:08:24;1.60;;;1.02;;
49502;SDS011;35409;48.776;9.204;2023-08-07T10:10:51;1.77;;;1.25;;
49502;SDS011;35409;48.776;9.204;2023-08-07T10:13:18;2.05;;;1.20;;
49502;SDS011;35409;48.776;9.204;2023-08-07T10:15:44;1.90;;;1.25;;
49502;SDS011;35409;48.776;9.204;2023-08-07T10:18:11;1.67;;;1.30;;
49502;SDS011;35409;48.776;9.204;2023-08-07T10:20:37;2.63;;;1.38;;
49502;SDS011;35409;48.776;9.204;2023-08-07T10:23:07;2.63;;;1.23;;
49502;SDS011;35409;48.776;9.204;2023-08-07T10:25:34;2.85;;;1.33;;
49502;SDS011;35409;48.776;9.204;2023-08-07T10:28:02;5.00;;;2.30;;
49502;SDS011;35409;48.776;9.204;2023-08-07T10:30:30;2.13;;;1.92;;
49502;SDS011;35409;48.776;9.204;2023-08-07T10:32:58;6.00;;;1.30;;
49502;SDS011;35409;48.776;9.204;2023-08-07T10:35:25;3.85;;;2.30;;
49502;SDS011;35409;48.776;9.204;2023-08-07T10:37:54;1.58;;;1.27;;
49502;SDS011;35409;48.776;9.204;2023-08-07T10:40:20;3.72;;;1.48;;
49502;SDS011;35409;48.776;9.204;2023-08-07T10:45:20;1.55;;;1.17;;
49502;SDS011;35409;48.776;9.204;2023-08-07T10:48:05;2.40;;;1.58;;
49502;SDS011;35409;48.776;9.204;2023-08-07T10:55:55;2.88;;;1.40;;
49502;SDS011;35409;48.776;9.204;2023-08-07T10:58:26;2.75;;;1.65;;
49502;SDS011;35409;48.776;9.204;2023-08-07T11:03:49;2.45;;;1.50;;
49502;SDS011;35409;48.776;9.204;2023-08-07T11:06:16;1.70;;;1.35;;
49502;SDS011;35409;48.776;9.204;2023-08-07T11:08:43;4.75;;;1.30;;
49502;SDS011;35409;48.776;9.204;2023-08-07T11:11:08;5.15;;;1.70;;
49502;SDS011;35409;48.776;9.204;2023-08-07T11:13:34;1.80;;;1.15;;
49502;SDS011;35409;48.776;9.204;2023-08-07T11:16:01;2.45;;;1.55;;
49502;SDS011;35409;48.776;9.204;2023-08-07T11:18:27;6.50;;;1.27;;
49502;SDS011;35409;48.776;9.204;2023-08-07T11:20:54;1.50;;;1.20;;
49502;SDS011;35409;48.776;9.204;2023-08-07T11:23:26;2.23;;;1.43;;
49502;SDS011;35409;48.776;9.204;2023-08-07T11:25:52;2.42;;;1.17;;
49502;SDS011;35409;48.776;9.204;2023-08-07T11:28:18;3.05;;;1.52;;
49502;SDS011;35409;48.776;9.204;2023-08-07T11:30:46;5.38;;;1.58;;
49502;SDS011;35409;48.776;9.204;2023-08-07T11:33:13;4.93;;;2.38;;
49502;SDS011;35409;48.776;9.204;2023-08-07T11:35:42;2.45;;;1.30;;
49502;SDS011;35409;48.776;9.204;2023-08-07T11:38:08;2.97;;;1.50;;
49502;SDS011;35409;48.776;9.204;2023-08-07T11:40:34;10.27;;;4.18;;
49502;SDS011;35409;48.776;9.204;2023-08-07T11:43:00;11.15;;;4.72;;
49502;SDS011;35409;48.776;9.204;2023-08-07T11:45:26;2.05;;;1.67;;
49502;SDS011;35409;48.776;9.204;2023-08-07T11:47:52;2.00;;;1.67;;
49502;SDS011;35409;48.776;9.204;2023-08-07T11:50:20;4.97;;;1.33;;
49502;SDS011;35409;48.776;9.204;2023-08-07T11:52:46;4.38;;;1.63;;
49502;SDS011;35409;48.776;9.204;2023-08-07T11:55:13;1.83;;;1.27;;
49502;SDS011;35409;48.776;9.204;2023-08-07T11:57:40;2.13;;;1.65;;
49502;SDS011;35409;48.776;9.204;2023-08-07T12:00:07;4.43;;;1.40;;
49502;SDS011;35409;48.776;9.204;2023-08-07T12:02:43;1.65;;;1.38;;
49502;SDS011;35409;48.776;9.204;2023-08-07T12:05:10;3.63;;;1.40;;
49502;SDS011;35409;48.776;9.204;2023-08-07T12:07:36;2.63;;;1.40;;
49502;SDS011;35409;48.776;9.204;2023-08-07T12:10:03;1.77;;;1.55;;
49502;SDS011;35409;48.776;9.204;2023-08-07T12:12:33;3.65;;;1.85;;
49502;SDS011;35409;48.776;9.204;2023-08-07T12:15:00;1.73;;;1.60;;
49502;SDS011;35409;48.776;9.204;2023-08-07T12:17:26;7.63;;;1.85;;
49502;SDS011;35409;48.776;9.204;2023-08-07T12:19:56;2.20;;;1.58;;
49502;SDS011;35409;48.776;9.204;2023-08-07T12:22:22;2.60;;;1.60;;
49502;SDS011;35409;48.776;9.204;2023-08-07T12:24:48;1.38;;;1.13;;
49502;SDS011;35409;48.776;9.204;2023-08-07T12:27:14;3.13;;;1.50;;
49502;SDS011;35409;48.776;9.204;2023-08-07T12:29:39;1.70;;;1.50;;
49502;SDS011;35409;48.776;9.204;2023-08-07T12:32:05;4.45;;;1.55;;
49502;SDS011;35409;48.776;9.204;2023-08-07T12:34:31;2.75;;;1.30;;
49502;SDS011;35409;48.776;9.204;2023-08-07T12:36:57;5.50;;;1.50;;
49502;SDS011;35409;48.776;9.204;2023-08-07T12:39:22;2.33;;;1.25;;
49502;SDS011;35409;48.776;9.204;2023-08-07T12:41:48;4.45;;;2.42;;
49502;SDS011;35409;48.776;9.204;2023-08-07T12:44:14;2.50;;;1.63;;
49502;SDS011;35409;48.776;9.204;2023-08-07T12:46:40;2.97;;;1.42;;
49502;SDS011;35409;48.776;9.204;2023-08-07T12:49:08;3.22;;;1.58;;
49502;SDS011;35409;48.776;9.204;2023-08-07T12:51:34;1.83;;;1.63;;
49502;SDS011;35409;48.776;9.204;2023-08-07T12:54:00;2.50;;;1.40;;
49502;SDS011;35409;48.776;9.204;2023-08-07T12:56:25;2.53;;;1.55;;
49502;SDS011;35409;48.776;9.204;2023-08-07T12:58:51;2.08;;;1.60;;
49502;SDS011;35409;48.776;9.204;2023-08-07T13:01:17;1.63;;;1.20;;
49502;SDS011;35409;48.776;9.204;2023-08-07T13:03:42;2.63;;;1.48;;
49502;SDS011;35409;48.776;9.204;2023-08-07T13:06:08;2.53;;;1.60;;
49502;SDS011;35409;48.776;9.204;2023-08-07T13:08:36;2.08;;;1.35;;
49502;SDS011;35409;48.776;9.204;2023-08-07T13:11:02;3.83;;;1.50;;
49502;SDS011;35409;48.776;9.204;2023-08-07T13:13:28;2.15;;;1.33;;
49502;SDS011;35409;48.776;9.204;2023-08-07T13:15:54;2.63;;;1.45;;
49502;SDS011;35409;48.776;9.204;2023-08-07T13:18:19;3.80;;;1.52;;
49502;SDS011;35409;48.776;9.204;2023-08-07T13:20:45;1.67;;;1.38;;
49502;SDS011;35409;48.776;9.204;2023-08-07T13:23:11;1.92;;;1.52;;
49502;SDS011;35409;48.776;9.204;2023-08-07T13:25:37;3.28;;;1.50;;
49502;SDS011;35409;48.776;9.204;2023-08-07T13:28:03;2.90;;;1.35;;
49502;SDS011;35409;48.776;9.204;2023-08-07T13:30:31;1.58;;;1.23;;
49502;SDS011;35409;48.776;9.204;2023-08-07T13:33:00;4.25;;;1.92;;
49502;SDS011;35409;48.776;9.204;2023-08-07T13:35:26;4.85;;;1.80;;
49502;SDS011;35409;48.776;9.204;2023-08-07T13:37:52;4.40;;;1.50;;
49502;SDS011;35409;48.776;9.204;2023-08-07T13:40:17;4.07;;;1.60;;
49502;SDS011;35409;48.776;9.204;2023-08-07T13:42:43;2.63;;;1.42;;
49502;SDS011;35409;48.776;9.204;2023-08-07T13:45:11;2.35;;;1.48;;
49502;SDS011;35409;48.776;9.204;2023-08-07T13:47:38;2.05;;;1.77;;
49502;SDS011;35409;48.776;9.204;2023-08-07T13:50:04;4.97;;;1.58;;
49502;SDS011;35409;48.776;9.204;2023-08-07T13:52:32;2.03;;;1.25;;
49502;SDS011;35409;48.776;9.204;2023-08-07T13:54:58;1.95;;;1.48;;
49502;SDS011;35409;48.776;9.204;2023-08-07T13:57:24;3.40;;;1.60;;
49502;SDS011;35409;48.776;9.204;2023-08-07T13:59:49;1.75;;;1.05;;
49502;SDS011;35409;48.776;9.204;2023-08-07T14:02:15;2.10;;;1.52;;
49502;SDS011;35409;48.776;9.204;2023-08-07T14:04:40;3.22;;;1.52;;
49502;SDS011;35409;48.776;9.204;2023-08-07T14:07:10;1.80;;;1.38;;
49502;SDS011;35409;48.776;9.204;2023-08-07T14:09:36;1.92;;;1.30;;
49502;SDS011;35409;48.776;9.204;2023-08-07T14:12:02;2.70;;;1.55;;
49502;SDS011;35409;48.776;9.204;2023-08-07T14:14:28;1.92;;;1.40;;
49502;SDS011;35409;48.776;9.204;2023-08-07T14:16:53;2.28;;;1.70;;
49502;SDS011;35409;48.776;9.204;2023-08-07T14:19:25;1.27;;;1.17;;
49502;SDS011;35409;48.776;9.204;2023-08-07T14:21:51;1.85;;;1.17;;
49502;SDS011;35409;48.776;9.204;2023-08-07T14:24:19;1.75;;;1.20;;
49502;SDS011;35409;48.776;9.204;2023-08-07T14:26:45;1.40;;;1.30;;
49502;SDS011;35409;48.776;9.204;2023-08-07T14:29:12;1.88;;;1.25;;
49502;SDS011;35409;48.776;9.204;2023-08-07T14:31:38;1.92;;;1.35;;
49502;SDS011;35409;48.776;9.204;2023-08-07T14:34:04;1.60;;;1.50;;
49502;SDS011;35409;48.776;9.204;2023-08-07T14:36:30;10.63;;;4.40;;
49502;SDS011;35409;48.776;9.204;2023-08-07T14:38:56;7.07;;;4.82;;
49502;SDS011;35409;48.776;9.204;2023-08-07T14:41:22;5.35;;;1.90;;
49502;SDS011;35409;48.776;9.204;2023-08-07T14:43:48;14.75;;;9.18;;
49502;SDS011;35409;48.776;9.204;2023-08-07T14:46:15;13.77;;;8.45;;
49502;SDS011;35409;48.776;9.204;2023-08-07T14:48:43;12.35;;;7.10;;
49502;SDS011;35409;48.776;9.204;2023-08-07T14:51:09;2.83;;;2.35;;
49502;SDS011;35409;48.776;9.204;2023-08-07T14:53:35;5.35;;;3.20;;
49502;SDS011;35409;48.776;9.204;2023-08-07T14:56:01;5.53;;;3.00;;
49502;SDS011;35409;48.776;9.204;2023-08-07T14:58:27;6.78;;;2.67;;